CMA-CGM Fort Saint Pierre — FQFM — position and weather

sailwx.info

Track history (hours):
 
Tides and Currents Weather Stations Pressure Air Temp Water Temp Dewpoint Dewpoint Depression Visibility Wind Speed Wind Dir Waves Ship Positions

CMA-CGM Fort Saint Pierre

Last reported at 2017-Mar-08 02:28 UTC. Time now 2017-Mar-28 23:25 UTC.
Position N 36°35' W 029°53'.
Warning: this ship's position is 20 days out of date.

Length 197 m; beam 30 m.

Type: Ship (hazmat cat A). MMSI: 226328000.

Date/timePositionNaut miles runAvg speedWind from/ knotsBaromVisibWave heightAir tempDewpointWater temp
2017-Mar-08 02:28N 36°35' W 029°53'1718.4
2017-Mar-08 01:33N 36°43' W 029°34'2618.3
2017-Mar-08 00:09N 36°54' W 029°05'1118.1
2017-Mar-07 23:33N 36°59' W 028°53'1818.2
2017-Mar-07 22:33N 37°08' W 028°33'1918.7
2017-Mar-07 21:33N 37°16' W 028°12'1918.7
2017-Mar-07 20:34N 37°25' W 027°51'1918.9
2017-Mar-07 19:33N 37°33' W 027°30'1919.3
2017-Mar-07 18:34N 37°42' W 027°09'2019.5
2017-Mar-07 17:33N 37°51' W 026°47'2019.7
2017-Mar-07 16:33N 38°00' W 026°25'1919.5
2017-Mar-07 15:33N 38°09' W 026°03'1919.4
2017-Mar-07 14:34N 38°18' W 025°41'1919.5
2017-Mar-07 13:34N 38°27' W 025°19'1919.4
2017-Mar-07 12:33N 38°36' W 024°57'1919.4
2017-Mar-07 11:33N 38°45' W 024°34'1919.5
2017-Mar-07 10:33N 38°54' W 024°12'2019.4
2017-Mar-07 09:32N 39°03' W 023°50'1919.0
2017-Mar-07 08:33N 39°11' W 023°28'  
2017-Mar-04 16:19N 49°41' W 004°06'1013.5
2017-Mar-04 15:33N 49°45' W 003°52'1414.3
2017-Mar-04 14:33N 49°50' W 003°31'1413.9
2017-Mar-04 13:33N 49°56' W 003°12'1312.8
2017-Mar-04 12:33N 49°60' W 002°53'3511.4
2017-Mar-04 09:30N 50°05' W 001°59'1213.3
2017-Mar-04 08:33N 49°59' W 001°42'1615.7
2017-Mar-04 07:33N 49°52' W 001°20'1717.1
2017-Mar-04 06:33N 49°44' W 000°57'1616.5
2017-Mar-04 05:33N 49°37' W 000°34'1616.0
2017-Mar-04 04:33N 49°32' W 000°10'1212.3
2017-Mar-04 03:34N 49°28' E 000°07'2 1.5
2017-Mar-04 02:31N 49°27' E 000°10'0 0.0
2017-Mar-04 01:31N 49°27' E 000°10'0 0.0
2017-Mar-04 00:31N 49°27' E 000°10'0 0.0
2017-Mar-03 23:31N 49°27' E 000°10'0 0.0
2017-Mar-03 22:31N 49°27' E 000°10'0 0.0
2017-Mar-03 21:31N 49°27' E 000°10'0 0.0
2017-Mar-03 20:31N 49°27' E 000°10'0 0.0
2017-Mar-03 19:31N 49°27' E 000°10'4 4.4
2017-Mar-03 18:33N 49°29' E 000°04'1111.0
2017-Mar-03 17:33N 49°34' W 000°11'1716.9
2017-Mar-03 16:33N 49°51' W 000°10'2019.6
2017-Mar-03 15:33N 50°10' W 000°11'2018.5
2017-Mar-03 14:27N 50°28' E 000°04'1718.8
2017-Mar-03 13:33N 50°34' E 000°29'1818.2
2017-Mar-03 12:33N 50°44' E 000°53'1918.9
2017-Mar-03 11:33N 50°55' E 001°18'2221.9
2017-Mar-03 10:34N 51°11' E 001°42'1919.4
2017-Mar-03 09:34N 51°24' E 002°04'1817.9
2017-Mar-03 08:34N 51°23' E 002°33'1515.4
2017-Mar-03 07:34N 51°23' E 002°58'1818.0
2017-Mar-03 06:33N 51°25' E 003°26'1010.1
2017-Mar-03 05:34N 51°25' E 003°43'10 9.9
2017-Mar-03 04:33N 51°26' E 003°58'9 8.8
2017-Mar-03 03:33N 51°24' E 004°12'7 6.2
2017-Mar-03 02:27N 51°18' E 004°16'0 0.0
2017-Mar-03 01:33N 51°18' E 004°16'0 0.0
2017-Mar-03 00:33N 51°18' E 004°16'0 0.0
2017-Mar-02 23:27N 51°18' E 004°16'0 0.0
2017-Mar-02 22:33N 51°18' E 004°16'0 0.0
2017-Mar-02 21:30N 51°17' E 004°16'0 0.0
2017-Mar-02 20:33N 51°18' E 004°16'0 0.0
2017-Mar-02 19:33N 51°18' E 004°16'0 0.0
2017-Mar-02 18:33N 51°18' E 004°16'0 0.0
2017-Mar-02 17:33N 51°18' E 004°16'0 0.0
2017-Mar-02 16:33N 51°18' E 004°16'0 0.0
2017-Mar-02 15:33N 51°18' E 004°16'0 0.0
2017-Mar-02 14:33N 51°18' E 004°16'2 1.6
2017-Mar-02 13:33N 51°19' E 004°16'9 9.0
2017-Mar-02 12:33N 51°23' E 004°03'8 8.0
2017-Mar-02 11:33N 51°21' E 003°51'1111.4
2017-Mar-02 10:34N 51°25' E 003°34'9 9.5
2017-Mar-02 09:34N 51°24' E 003°19'1110.9
2017-Mar-02 08:34N 51°24' E 003°01'1211.9
2017-Mar-02 07:33N 51°24' E 002°42'6 6.2
2017-Mar-02 06:34N 51°27' E 002°51'10 9.9
2017-Mar-02 05:34N 51°31' E 003°05'1111.3
2017-Mar-02 04:33N 51°42' E 003°12'2 2.2
2017-Mar-02 03:33N 51°43' E 003°15'7 7.2
2017-Mar-02 02:33N 51°49' E 003°22'1 0.4
2017-Mar-02 00:31N 51°49' E 003°23'0 0.1
2017-Mar-01 23:33N 51°49' E 003°23'0 0.0
2017-Mar-01 22:13N 51°49' E 003°23'0 0.0
2017-Mar-01 21:31N 51°49' E 003°23'0 0.0
2017-Mar-01 13:10N 51°49' E 003°23'0 0.2
2017-Mar-01 12:27N 51°49' E 003°23'0 0.0
2017-Mar-01 11:18N 51°49' E 003°23'0 0.1
2017-Mar-01 08:28N 51°49' E 003°23'0 0.0
2017-Mar-01 07:33N 51°49' E 003°23'0 0.0
2017-Mar-01 06:24N 51°49' E 003°23'0 0.0
2017-Mar-01 03:28N 51°49' E 003°23'0 0.0
2017-Mar-01 01:09N 51°49' E 003°23'0 0.1
2017-Feb-28 23:34N 51°49' E 003°23'0 0.1
2017-Feb-28 22:31N 51°49' E 003°23'0 0.0
2017-Feb-28 21:28N 51°49' E 003°23'0 0.1
2017-Feb-28 18:13N 51°49' E 003°23'4 6.4
2017-Feb-28 17:33N 51°53' E 003°21'21315.2
2017-Feb-28 03:33N 54°02' E 008°04'1716.5
2017-Feb-28 02:33N 53°58' E 008°31'1414.1
2017-Feb-28 01:33N 53°50' E 008°51'1312.9
2017-Feb-28 00:33N 53°53' E 009°12'1110.8
2017-Feb-27 23:34N 53°45' E 009°25'1312.9
2017-Feb-27 22:33N 53°35' E 009°38'10 9.6
2017-Feb-27 21:31N 53°32' E 009°55'0 0.0
2017-Feb-27 20:31N 53°32' E 009°55'0 0.0
2017-Feb-27 19:31N 53°32' E 009°55'0 0.0
2017-Feb-27 18:31N 53°32' E 009°55'0 0.0
2017-Feb-27 17:28N 53°32' E 009°55'0 0.0
2017-Feb-27 16:31N 53°32' E 009°55'0 0.0
2017-Feb-27 15:31N 53°32' E 009°55'0 0.0
2017-Feb-27 14:31N 53°32' E 009°55'0 0.0
2017-Feb-27 13:31N 53°32' E 009°55'0 0.0
2017-Feb-27 12:31N 53°32' E 009°55'0 0.0
2017-Feb-27 11:28N 53°32' E 009°55'0 0.0
2017-Feb-27 10:28N 53°32' E 009°55'0 0.0
2017-Feb-27 09:31N 53°32' E 009°55'0 0.0
2017-Feb-27 08:31N 53°32' E 009°55'0 0.0
2017-Feb-27 07:31N 53°32' E 009°55'0 0.0
2017-Feb-27 06:31N 53°32' E 009°55'0 0.0
2017-Feb-27 05:31N 53°32' E 009°55'0 0.0
2017-Feb-27 04:31N 53°32' E 009°55'0 0.0
2017-Feb-27 03:31N 53°32' E 009°55'0 0.0
2017-Feb-27 02:31N 53°32' E 009°55'0 0.0
2017-Feb-27 01:31N 53°32' E 009°55'0 0.0
2017-Feb-27 00:31N 53°32' E 009°55'1 0.6
2017-Feb-26 23:33N 53°32' E 009°54'1010.3
2017-Feb-26 22:33N 53°35' E 009°37'1413.5
2017-Feb-26 21:33N 53°46' E 009°24'1212.4
2017-Feb-26 20:33N 53°53' E 009°06'1413.5
2017-Feb-26 19:33N 53°53' E 008°43'1514.5
2017-Feb-26 18:33N 53°59' E 008°21'1616.4
2017-Feb-26 17:33N 53°57' E 007°53'4418.8
2017-Feb-26 15:14N 53°47' E 006°41'52 6.8
2017-Feb-26 07:32N 53°31' E 005°17'3013.4
2017-Feb-26 05:18N 53°14' E 004°36'1114.4
2017-Feb-26 04:33N 53°05' E 004°27'1414.2
2017-Feb-26 03:34N 52°53' E 004°15'1414.1
2017-Feb-26 02:33N 52°42' E 004°00'  
Track history (hours):
 
Tides and Currents Weather Stations Pressure Air Temp Water Temp Dewpoint Dewpoint Depression Visibility Wind Speed Wind Dir Waves Ship Positions

CMA-CGM Fort Saint Pierre

Last reported at 2017-Mar-08 02:28 UTC. Time now 2017-Mar-28 23:25 UTC.
Position N 36°35' W 029°53'.
Warning: this ship's position is 20 days out of date.

Length 197 m; beam 30 m.

Type: Ship (hazmat cat A). MMSI: 226328000.

Date/timePositionNaut miles runAvg speedWind from/ knotsBaromVisibWave heightAir tempDewpointWater temp
2017-Mar-08 02:28N 36°35' W 029°53'1718.4
2017-Mar-08 01:33N 36°43' W 029°34'2618.3
2017-Mar-08 00:09N 36°54' W 029°05'1118.1
2017-Mar-07 23:33N 36°59' W 028°53'1818.2
2017-Mar-07 22:33N 37°08' W 028°33'1918.7
2017-Mar-07 21:33N 37°16' W 028°12'1918.7
2017-Mar-07 20:34N 37°25' W 027°51'1918.9
2017-Mar-07 19:33N 37°33' W 027°30'1919.3
2017-Mar-07 18:34N 37°42' W 027°09'2019.5
2017-Mar-07 17:33N 37°51' W 026°47'2019.7
2017-Mar-07 16:33N 38°00' W 026°25'1919.5
2017-Mar-07 15:33N 38°09' W 026°03'1919.4
2017-Mar-07 14:34N 38°18' W 025°41'1919.5
2017-Mar-07 13:34N 38°27' W 025°19'1919.4
2017-Mar-07 12:33N 38°36' W 024°57'1919.4
2017-Mar-07 11:33N 38°45' W 024°34'1919.5
2017-Mar-07 10:33N 38°54' W 024°12'2019.4
2017-Mar-07 09:32N 39°03' W 023°50'1919.0
2017-Mar-07 08:33N 39°11' W 023°28'  
2017-Mar-04 16:19N 49°41' W 004°06'1013.5
2017-Mar-04 15:33N 49°45' W 003°52'1414.3
2017-Mar-04 14:33N 49°50' W 003°31'1413.9
2017-Mar-04 13:33N 49°56' W 003°12'1312.8
2017-Mar-04 12:33N 49°60' W 002°53'3511.4
2017-Mar-04 09:30N 50°05' W 001°59'1213.3
2017-Mar-04 08:33N 49°59' W 001°42'1615.7
2017-Mar-04 07:33N 49°52' W 001°20'1717.1
2017-Mar-04 06:33N 49°44' W 000°57'1616.5
2017-Mar-04 05:33N 49°37' W 000°34'1616.0
2017-Mar-04 04:33N 49°32' W 000°10'1212.3
2017-Mar-04 03:34N 49°28' E 000°07'2 1.5
2017-Mar-04 02:31N 49°27' E 000°10'0 0.0
2017-Mar-04 01:31N 49°27' E 000°10'0 0.0
2017-Mar-04 00:31N 49°27' E 000°10'0 0.0
2017-Mar-03 23:31N 49°27' E 000°10'0 0.0
2017-Mar-03 22:31N 49°27' E 000°10'0 0.0
2017-Mar-03 21:31N 49°27' E 000°10'0 0.0
2017-Mar-03 20:31N 49°27' E 000°10'0 0.0
2017-Mar-03 19:31N 49°27' E 000°10'4 4.4
2017-Mar-03 18:33N 49°29' E 000°04'1111.0
2017-Mar-03 17:33N 49°34' W 000°11'1716.9
2017-Mar-03 16:33N 49°51' W 000°10'2019.6
2017-Mar-03 15:33N 50°10' W 000°11'2018.5
2017-Mar-03 14:27N 50°28' E 000°04'1718.8
2017-Mar-03 13:33N 50°34' E 000°29'1818.2
2017-Mar-03 12:33N 50°44' E 000°53'1918.9
2017-Mar-03 11:33N 50°55' E 001°18'2221.9
2017-Mar-03 10:34N 51°11' E 001°42'1919.4
2017-Mar-03 09:34N 51°24' E 002°04'1817.9
2017-Mar-03 08:34N 51°23' E 002°33'1515.4
2017-Mar-03 07:34N 51°23' E 002°58'1818.0
2017-Mar-03 06:33N 51°25' E 003°26'1010.1
2017-Mar-03 05:34N 51°25' E 003°43'10 9.9
2017-Mar-03 04:33N 51°26' E 003°58'9 8.8
2017-Mar-03 03:33N 51°24' E 004°12'7 6.2
2017-Mar-03 02:27N 51°18' E 004°16'0 0.0
2017-Mar-03 01:33N 51°18' E 004°16'0 0.0
2017-Mar-03 00:33N 51°18' E 004°16'0 0.0
2017-Mar-02 23:27N 51°18' E 004°16'0 0.0
2017-Mar-02 22:33N 51°18' E 004°16'0 0.0
2017-Mar-02 21:30N 51°17' E 004°16'0 0.0
2017-Mar-02 20:33N 51°18' E 004°16'0 0.0
2017-Mar-02 19:33N 51°18' E 004°16'0 0.0
2017-Mar-02 18:33N 51°18' E 004°16'0 0.0
2017-Mar-02 17:33N 51°18' E 004°16'0 0.0
2017-Mar-02 16:33N 51°18' E 004°16'0 0.0
2017-Mar-02 15:33N 51°18' E 004°16'0 0.0
2017-Mar-02 14:33N 51°18' E 004°16'2 1.6
2017-Mar-02 13:33N 51°19' E 004°16'9 9.0
2017-Mar-02 12:33N 51°23' E 004°03'8 8.0
2017-Mar-02 11:33N 51°21' E 003°51'1111.4
2017-Mar-02 10:34N 51°25' E 003°34'9 9.5
2017-Mar-02 09:34N 51°24' E 003°19'1110.9
2017-Mar-02 08:34N 51°24' E 003°01'1211.9
2017-Mar-02 07:33N 51°24' E 002°42'6 6.2
2017-Mar-02 06:34N 51°27' E 002°51'10 9.9
2017-Mar-02 05:34N 51°31' E 003°05'1111.3
2017-Mar-02 04:33N 51°42' E 003°12'2 2.2
2017-Mar-02 03:33N 51°43' E 003°15'7 7.2
2017-Mar-02 02:33N 51°49' E 003°22'1 0.4
2017-Mar-02 00:31N 51°49' E 003°23'0 0.1
2017-Mar-01 23:33N 51°49' E 003°23'0 0.0
2017-Mar-01 22:13N 51°49' E 003°23'0 0.0
2017-Mar-01 21:31N 51°49' E 003°23'0 0.0
2017-Mar-01 13:10N 51°49' E 003°23'0 0.2
2017-Mar-01 12:27N 51°49' E 003°23'0 0.0
2017-Mar-01 11:18N 51°49' E 003°23'0 0.1
2017-Mar-01 08:28N 51°49' E 003°23'0 0.0
2017-Mar-01 07:33N 51°49' E 003°23'0 0.0
2017-Mar-01 06:24N 51°49' E 003°23'0 0.0
2017-Mar-01 03:28N 51°49' E 003°23'0 0.0
2017-Mar-01 01:09N 51°49' E 003°23'0 0.1
2017-Feb-28 23:34N 51°49' E 003°23'0 0.1
2017-Feb-28 22:31N 51°49' E 003°23'0 0.0
2017-Feb-28 21:28N 51°49' E 003°23'0 0.1
2017-Feb-28 18:13N 51°49' E 003°23'4 6.4
2017-Feb-28 17:33N 51°53' E 003°21'21315.2
2017-Feb-28 03:33N 54°02' E 008°04'1716.5
2017-Feb-28 02:33N 53°58' E 008°31'1414.1
2017-Feb-28 01:33N 53°50' E 008°51'1312.9
2017-Feb-28 00:33N 53°53' E 009°12'1110.8
2017-Feb-27 23:34N 53°45' E 009°25'1312.9
2017-Feb-27 22:33N 53°35' E 009°38'10 9.6
2017-Feb-27 21:31N 53°32' E 009°55'0 0.0
2017-Feb-27 20:31N 53°32' E 009°55'0 0.0
2017-Feb-27 19:31N 53°32' E 009°55'0 0.0
2017-Feb-27 18:31N 53°32' E 009°55'0 0.0
2017-Feb-27 17:28N 53°32' E 009°55'0 0.0
2017-Feb-27 16:31N 53°32' E 009°55'0 0.0
2017-Feb-27 15:31N 53°32' E 009°55'0 0.0
2017-Feb-27 14:31N 53°32' E 009°55'0 0.0
2017-Feb-27 13:31N 53°32' E 009°55'0 0.0
2017-Feb-27 12:31N 53°32' E 009°55'0 0.0
2017-Feb-27 11:28N 53°32' E 009°55'0 0.0
2017-Feb-27 10:28N 53°32' E 009°55'0 0.0
2017-Feb-27 09:31N 53°32' E 009°55'0 0.0
2017-Feb-27 08:31N 53°32' E 009°55'0 0.0
2017-Feb-27 07:31N 53°32' E 009°55'0 0.0
2017-Feb-27 06:31N 53°32' E 009°55'0 0.0
2017-Feb-27 05:31N 53°32' E 009°55'0 0.0
2017-Feb-27 04:31N 53°32' E 009°55'0 0.0
2017-Feb-27 03:31N 53°32' E 009°55'0 0.0
2017-Feb-27 02:31N 53°32' E 009°55'0 0.0
2017-Feb-27 01:31N 53°32' E 009°55'0 0.0
2017-Feb-27 00:31N 53°32' E 009°55'1 0.6
2017-Feb-26 23:33N 53°32' E 009°54'1010.3
2017-Feb-26 22:33N 53°35' E 009°37'1413.5
2017-Feb-26 21:33N 53°46' E 009°24'1212.4
2017-Feb-26 20:33N 53°53' E 009°06'1413.5
2017-Feb-26 19:33N 53°53' E 008°43'1514.5
2017-Feb-26 18:33N 53°59' E 008°21'1616.4
2017-Feb-26 17:33N 53°57' E 007°53'4418.8
2017-Feb-26 15:14N 53°47' E 006°41'52 6.8
2017-Feb-26 07:32N 53°31' E 005°17'3013.4
2017-Feb-26 05:18N 53°14' E 004°36'1114.4
2017-Feb-26 04:33N 53°05' E 004°27'1414.2
2017-Feb-26 03:34N 52°53' E 004°15'1414.1
2017-Feb-26 02:33N 52°42' E 004°00'  

Dump ship's entire track history